sensor_id;sensor_type;location;lat;lon;timestamp;temperature;humidity
3921;DHT22;1975;49.356;6.816;2022-12-05T00:02:19;4.90;99.90
3921;DHT22;1975;49.356;6.816;2022-12-05T00:04:45;4.90;99.90
3921;DHT22;1975;49.356;6.816;2022-12-05T00:07:10;4.90;99.90
3921;DHT22;1975;49.356;6.816;2022-12-05T00:09:36;4.90;99.90
3921;DHT22;1975;49.356;6.816;2022-12-05T00:12:01;4.90;99.90
3921;DHT22;1975;49.356;6.816;2022-12-05T00:14:27;4.90;99.90
3921;DHT22;1975;49.356;6.816;2022-12-05T00:16:52;4.90;99.90
3921;DHT22;1975;49.356;6.816;2022-12-05T00:19:18;4.90;99.90
3921;DHT22;1975;49.356;6.816;2022-12-05T00:21:43;4.90;99.90
3921;DHT22;1975;49.356;6.816;2022-12-05T00:24:11;4.90;99.90
3921;DHT22;1975;49.356;6.816;2022-12-05T00:26:37;4.90;99.90
3921;DHT22;1975;49.356;6.816;2022-12-05T00:29:02;4.90;99.90
3921;DHT22;1975;49.356;6.816;2022-12-05T00:31:28;4.90;99.90
3921;DHT22;1975;49.356;6.816;2022-12-05T00:33:53;4.90;99.90
3921;DHT22;1975;49.356;6.816;2022-12-05T00:36:20;4.90;99.90
3921;DHT22;1975;49.356;6.816;2022-12-05T00:38:45;4.90;99.90
3921;DHT22;1975;49.356;6.816;2022-12-05T00:41:12;4.90;99.90
3921;DHT22;1975;49.356;6.816;2022-12-05T00:43:39;4.90;99.90
3921;DHT22;1975;49.356;6.816;2022-12-05T00:46:05;4.90;99.90
3921;DHT22;1975;49.356;6.816;2022-12-05T00:48:31;4.90;99.90
3921;DHT22;1975;49.356;6.816;2022-12-05T00:51:00;4.90;99.90
3921;DHT22;1975;49.356;6.816;2022-12-05T00:53:26;4.90;99.90
3921;DHT22;1975;49.356;6.816;2022-12-05T00:55:51;4.90;99.90
3921;DHT22;1975;49.356;6.816;2022-12-05T00:58:17;4.90;99.90
3921;DHT22;1975;49.356;6.816;2022-12-05T01:00:42;4.90;99.90
3921;DHT22;1975;49.356;6.816;2022-12-05T01:03:08;4.90;99.90
3921;DHT22;1975;49.356;6.816;2022-12-05T01:05:34;4.90;99.90
3921;DHT22;1975;49.356;6.816;2022-12-05T01:07:59;4.90;99.90
3921;DHT22;1975;49.356;6.816;2022-12-05T01:10:25;4.90;99.90
3921;DHT22;1975;49.356;6.816;2022-12-05T01:12:52;4.90;99.90
3921;DHT22;1975;49.356;6.816;2022-12-05T01:15:17;4.90;99.90
3921;DHT22;1975;49.356;6.816;2022-12-05T01:17:43;4.90;99.90
3921;DHT22;1975;49.356;6.816;2022-12-05T01:20:08;4.90;99.90
3921;DHT22;1975;49.356;6.816;2022-12-05T01:22:34;4.90;99.90
3921;DHT22;1975;49.356;6.816;2022-12-05T01:24:59;4.90;99.90
3921;DHT22;1975;49.356;6.816;2022-12-05T01:27:25;4.90;99.90
3921;DHT22;1975;49.356;6.816;2022-12-05T01:29:50;4.90;99.90
3921;DHT22;1975;49.356;6.816;2022-12-05T01:32:16;4.90;99.90
3921;DHT22;1975;49.356;6.816;2022-12-05T01:34:41;4.90;99.90
3921;DHT22;1975;49.356;6.816;2022-12-05T01:37:07;4.90;99.90
3921;DHT22;1975;49.356;6.816;2022-12-05T01:39:32;4.90;99.90
3921;DHT22;1975;49.356;6.816;2022-12-05T01:41:58;4.90;99.90
3921;DHT22;1975;49.356;6.816;2022-12-05T01:46:49;4.90;99.90
3921;DHT22;1975;49.356;6.816;2022-12-05T01:51:47;4.90;99.90
3921;DHT22;1975;49.356;6.816;2022-12-05T01:54:14;4.90;99.90
3921;DHT22;1975;49.356;6.816;2022-12-05T01:56:41;4.90;99.90
3921;DHT22;1975;49.356;6.816;2022-12-05T01:59:08;4.90;99.90
3921;DHT22;1975;49.356;6.816;2022-12-05T02:01:35;4.90;99.90
3921;DHT22;1975;49.356;6.816;2022-12-05T02:04:01;4.90;99.90
3921;DHT22;1975;49.356;6.816;2022-12-05T02:06:26;4.90;99.90
3921;DHT22;1975;49.356;6.816;2022-12-05T02:08:53;4.90;99.90
3921;DHT22;1975;49.356;6.816;2022-12-05T02:11:18;4.90;99.90
3921;DHT22;1975;49.356;6.816;2022-12-05T02:19:03;4.90;99.90
3921;DHT22;1975;49.356;6.816;2022-12-05T02:26:36;4.90;99.90
3921;DHT22;1975;49.356;6.816;2022-12-05T02:31:32;4.90;99.90
3921;DHT22;1975;49.356;6.816;2022-12-05T02:34:09;4.90;99.90
3921;DHT22;1975;49.356;6.816;2022-12-05T02:36:41;4.90;99.90
3921;DHT22;1975;49.356;6.816;2022-12-05T02:39:11;4.90;99.90
3921;DHT22;1975;49.356;6.816;2022-12-05T02:41:40;4.90;99.90
3921;DHT22;1975;49.356;6.816;2022-12-05T02:44:13;4.90;99.90
3921;DHT22;1975;49.356;6.816;2022-12-05T02:46:40;4.90;99.90
3921;DHT22;1975;49.356;6.816;2022-12-05T02:49:08;4.90;99.90
3921;DHT22;1975;49.356;6.816;2022-12-05T02:51:37;4.90;99.90
3921;DHT22;1975;49.356;6.816;2022-12-05T02:54:04;4.90;99.90
3921;DHT22;1975;49.356;6.816;2022-12-05T02:56:32;4.90;99.90
3921;DHT22;1975;49.356;6.816;2022-12-05T02:58:58;4.90;99.90
3921;DHT22;1975;49.356;6.816;2022-12-05T03:01:25;4.90;99.90
3921;DHT22;1975;49.356;6.816;2022-12-05T03:03:51;4.90;99.90
3921;DHT22;1975;49.356;6.816;2022-12-05T03:06:19;4.90;99.90
3921;DHT22;1975;49.356;6.816;2022-12-05T03:09:05;4.90;99.90
3921;DHT22;1975;49.356;6.816;2022-12-05T03:11:33;4.90;99.90
3921;DHT22;1975;49.356;6.816;2022-12-05T03:14:02;4.90;99.90
3921;DHT22;1975;49.356;6.816;2022-12-05T03:16:35;4.90;99.90
3921;DHT22;1975;49.356;6.816;2022-12-05T03:19:36;4.90;99.90
3921;DHT22;1975;49.356;6.816;2022-12-05T03:24:58;4.90;99.90
3921;DHT22;1975;49.356;6.816;2022-12-05T03:29:57;4.90;99.90
3921;DHT22;1975;49.356;6.816;2022-12-05T03:32:34;4.90;99.90
3921;DHT22;1975;49.356;6.816;2022-12-05T03:35:17;4.90;99.90
3921;DHT22;1975;49.356;6.816;2022-12-05T03:42:43;4.90;99.90
3921;DHT22;1975;49.356;6.816;2022-12-05T03:45:12;4.90;99.90
3921;DHT22;1975;49.356;6.816;2022-12-05T03:50:18;4.90;99.90
3921;DHT22;1975;49.356;6.816;2022-12-05T03:52:45;4.90;99.90
3921;DHT22;1975;49.356;6.816;2022-12-05T03:55:12;4.90;99.90
3921;DHT22;1975;49.356;6.816;2022-12-05T03:57:56;5.00;99.90
3921;DHT22;1975;49.356;6.816;2022-12-05T04:00:23;4.90;99.90
3921;DHT22;1975;49.356;6.816;2022-12-05T04:05:19;4.90;99.90
3921;DHT22;1975;49.356;6.816;2022-12-05T04:07:48;4.90;99.90
3921;DHT22;1975;49.356;6.816;2022-12-05T04:10:17;4.90;99.90
3921;DHT22;1975;49.356;6.816;2022-12-05T04:12:44;4.90;99.90
3921;DHT22;1975;49.356;6.816;2022-12-05T04:15:17;5.00;99.90
3921;DHT22;1975;49.356;6.816;2022-12-05T04:20:11;4.90;99.90
3921;DHT22;1975;49.356;6.816;2022-12-05T04:22:56;4.90;99.90
3921;DHT22;1975;49.356;6.816;2022-12-05T04:25:21;4.90;99.90
3921;DHT22;1975;49.356;6.816;2022-12-05T04:30:24;5.00;99.90
3921;DHT22;1975;49.356;6.816;2022-12-05T04:35:23;4.90;99.90
3921;DHT22;1975;49.356;6.816;2022-12-05T04:37:50;4.90;99.90
3921;DHT22;1975;49.356;6.816;2022-12-05T04:40:18;4.90;99.90
3921;DHT22;1975;49.356;6.816;2022-12-05T04:42:44;4.90;99.90
3921;DHT22;1975;49.356;6.816;2022-12-05T04:45:12;4.90;99.90
3921;DHT22;1975;49.356;6.816;2022-12-05T04:47:41;5.00;99.90
3921;DHT22;1975;49.356;6.816;2022-12-05T04:50:07;4.90;99.90
3921;DHT22;1975;49.356;6.816;2022-12-05T04:52:33;5.00;99.90
3921;DHT22;1975;49.356;6.816;2022-12-05T04:55:02;5.00;99.90
3921;DHT22;1975;49.356;6.816;2022-12-05T04:57:30;5.00;99.90
3921;DHT22;1975;49.356;6.816;2022-12-05T04:59:57;4.90;99.90
3921;DHT22;1975;49.356;6.816;2022-12-05T05:02:33;4.90;99.90
3921;DHT22;1975;49.356;6.816;2022-12-05T05:05:02;4.90;99.90
3921;DHT22;1975;49.356;6.816;2022-12-05T05:07:29;4.90;99.90
3921;DHT22;1975;49.356;6.816;2022-12-05T05:09:54;5.00;99.90
3921;DHT22;1975;49.356;6.816;2022-12-05T05:12:20;4.90;99.90
3921;DHT22;1975;49.356;6.816;2022-12-05T05:14:46;4.90;99.90
3921;DHT22;1975;49.356;6.816;2022-12-05T05:17:11;4.90;99.90
3921;DHT22;1975;49.356;6.816;2022-12-05T05:19:37;5.00;99.90
3921;DHT22;1975;49.356;6.816;2022-12-05T05:22:02;4.90;99.90
3921;DHT22;1975;49.356;6.816;2022-12-05T05:24:28;5.00;99.90
3921;DHT22;1975;49.356;6.816;2022-12-05T05:26:53;5.00;99.90
3921;DHT22;1975;49.356;6.816;2022-12-05T05:29:19;5.00;99.90
3921;DHT22;1975;49.356;6.816;2022-12-05T05:31:44;5.00;99.90
3921;DHT22;1975;49.356;6.816;2022-12-05T05:34:10;5.00;99.90
3921;DHT22;1975;49.356;6.816;2022-12-05T05:36:36;5.00;99.90
3921;DHT22;1975;49.356;6.816;2022-12-05T05:39:02;5.00;99.90
3921;DHT22;1975;49.356;6.816;2022-12-05T05:41:32;5.00;99.90
3921;DHT22;1975;49.356;6.816;2022-12-05T05:43:58;5.00;99.90
3921;DHT22;1975;49.356;6.816;2022-12-05T05:46:24;5.00;99.90
3921;DHT22;1975;49.356;6.816;2022-12-05T05:48:50;5.00;99.90
3921;DHT22;1975;49.356;6.816;2022-12-05T05:51:17;5.00;99.90
3921;DHT22;1975;49.356;6.816;2022-12-05T05:53:43;5.00;99.90
3921;DHT22;1975;49.356;6.816;2022-12-05T05:56:10;5.00;99.90
3921;DHT22;1975;49.356;6.816;2022-12-05T05:58:36;5.00;99.90
3921;DHT22;1975;49.356;6.816;2022-12-05T06:03:28;5.00;99.90
3921;DHT22;1975;49.356;6.816;2022-12-05T06:05:57;5.00;99.90
3921;DHT22;1975;49.356;6.816;2022-12-05T06:08:22;5.00;99.90
3921;DHT22;1975;49.356;6.816;2022-12-05T06:10:48;5.00;99.90
3921;DHT22;1975;49.356;6.816;2022-12-05T06:13:13;5.00;99.90
3921;DHT22;1975;49.356;6.816;2022-12-05T06:15:39;5.00;99.90
3921;DHT22;1975;49.356;6.816;2022-12-05T06:18:04;5.00;99.90
3921;DHT22;1975;49.356;6.816;2022-12-05T06:20:30;5.00;99.90
3921;DHT22;1975;49.356;6.816;2022-12-05T06:22:55;5.00;99.90
3921;DHT22;1975;49.356;6.816;2022-12-05T06:25:21;5.00;99.90
3921;DHT22;1975;49.356;6.816;2022-12-05T06:27:46;5.00;99.90
3921;DHT22;1975;49.356;6.816;2022-12-05T06:30:12;5.00;99.90
3921;DHT22;1975;49.356;6.816;2022-12-05T06:32:37;5.00;99.90
3921;DHT22;1975;49.356;6.816;2022-12-05T06:35:03;5.00;99.90
3921;DHT22;1975;49.356;6.816;2022-12-05T06:37:36;5.00;99.90
3921;DHT22;1975;49.356;6.816;2022-12-05T06:40:02;5.00;99.90
3921;DHT22;1975;49.356;6.816;2022-12-05T06:42:28;5.00;99.90
3921;DHT22;1975;49.356;6.816;2022-12-05T06:44:55;5.00;99.90
3921;DHT22;1975;49.356;6.816;2022-12-05T06:47:20;5.00;99.90
3921;DHT22;1975;49.356;6.816;2022-12-05T06:49:45;5.00;99.90
3921;DHT22;1975;49.356;6.816;2022-12-05T06:52:11;5.00;99.90
3921;DHT22;1975;49.356;6.816;2022-12-05T06:54:37;5.00;99.90
3921;DHT22;1975;49.356;6.816;2022-12-05T06:57:02;5.00;99.90
3921;DHT22;1975;49.356;6.816;2022-12-05T06:59:27;5.00;99.90
3921;DHT22;1975;49.356;6.816;2022-12-05T07:01:53;5.00;99.90
3921;DHT22;1975;49.356;6.816;2022-12-05T07:04:20;5.00;99.90
3921;DHT22;1975;49.356;6.816;2022-12-05T07:06:48;5.00;99.90
3921;DHT22;1975;49.356;6.816;2022-12-05T07:09:14;5.00;99.90
3921;DHT22;1975;49.356;6.816;2022-12-05T07:11:40;5.00;99.90
3921;DHT22;1975;49.356;6.816;2022-12-05T07:14:06;5.00;99.90
3921;DHT22;1975;49.356;6.816;2022-12-05T07:16:33;5.00;99.90
3921;DHT22;1975;49.356;6.816;2022-12-05T07:18:59;5.00;99.90
3921;DHT22;1975;49.356;6.816;2022-12-05T07:21:24;5.00;99.90
3921;DHT22;1975;49.356;6.816;2022-12-05T07:23:50;5.00;99.90
3921;DHT22;1975;49.356;6.816;2022-12-05T07:26:17;5.00;99.90
3921;DHT22;1975;49.356;6.816;2022-12-05T07:28:42;5.00;99.90
3921;DHT22;1975;49.356;6.816;2022-12-05T07:31:09;5.00;99.90
3921;DHT22;1975;49.356;6.816;2022-12-05T07:33:35;5.00;99.90
3921;DHT22;1975;49.356;6.816;2022-12-05T07:36:02;5.00;99.90
3921;DHT22;1975;49.356;6.816;2022-12-05T07:38:28;5.00;99.90
3921;DHT22;1975;49.356;6.816;2022-12-05T07:40:53;5.00;99.90
3921;DHT22;1975;49.356;6.816;2022-12-05T07:43:19;5.00;99.90
3921;DHT22;1975;49.356;6.816;2022-12-05T07:45:45;5.00;99.90
3921;DHT22;1975;49.356;6.816;2022-12-05T07:48:10;5.00;99.90
3921;DHT22;1975;49.356;6.816;2022-12-05T07:50:35;5.00;99.90
3921;DHT22;1975;49.356;6.816;2022-12-05T07:53:01;5.00;99.90
3921;DHT22;1975;49.356;6.816;2022-12-05T07:55:26;5.00;99.90
3921;DHT22;1975;49.356;6.816;2022-12-05T07:57:52;5.00;99.90
3921;DHT22;1975;49.356;6.816;2022-12-05T08:00:17;5.00;99.90
3921;DHT22;1975;49.356;6.816;2022-12-05T08:02:43;5.00;99.90
3921;DHT22;1975;49.356;6.816;2022-12-05T08:05:08;5.00;99.90
3921;DHT22;1975;49.356;6.816;2022-12-05T08:07:34;5.00;99.90
3921;DHT22;1975;49.356;6.816;2022-12-05T08:09:59;5.00;99.90
3921;DHT22;1975;49.356;6.816;2022-12-05T08:12:25;5.10;99.90
3921;DHT22;1975;49.356;6.816;2022-12-05T08:14:50;5.10;99.90
3921;DHT22;1975;49.356;6.816;2022-12-05T08:17:16;5.00;99.90
3921;DHT22;1975;49.356;6.816;2022-12-05T08:19:42;5.10;99.90
3921;DHT22;1975;49.356;6.816;2022-12-05T08:22:07;5.10;99.90
3921;DHT22;1975;49.356;6.816;2022-12-05T08:24:33;5.10;99.90
3921;DHT22;1975;49.356;6.816;2022-12-05T08:26:58;5.10;99.90
3921;DHT22;1975;49.356;6.816;2022-12-05T08:29:24;5.10;99.90
3921;DHT22;1975;49.356;6.816;2022-12-05T08:31:50;5.10;99.90
3921;DHT22;1975;49.356;6.816;2022-12-05T08:34:16;5.10;99.90
3921;DHT22;1975;49.356;6.816;2022-12-05T08:36:42;5.10;99.90
3921;DHT22;1975;49.356;6.816;2022-12-05T08:39:09;5.10;99.90
3921;DHT22;1975;49.356;6.816;2022-12-05T08:41:36;5.10;99.90
3921;DHT22;1975;49.356;6.816;2022-12-05T08:44:02;5.10;99.90
3921;DHT22;1975;49.356;6.816;2022-12-05T08:46:30;5.10;99.90
3921;DHT22;1975;49.356;6.816;2022-12-05T08:48:55;5.10;99.90
3921;DHT22;1975;49.356;6.816;2022-12-05T08:51:21;5.10;99.90
3921;DHT22;1975;49.356;6.816;2022-12-05T08:53:46;5.10;99.90
3921;DHT22;1975;49.356;6.816;2022-12-05T08:56:12;5.10;99.90
3921;DHT22;1975;49.356;6.816;2022-12-05T08:58:38;5.10;99.90
3921;DHT22;1975;49.356;6.816;2022-12-05T09:01:04;5.10;99.90
3921;DHT22;1975;49.356;6.816;2022-12-05T09:03:30;5.10;99.90
3921;DHT22;1975;49.356;6.816;2022-12-05T09:06:15;5.10;99.90
3921;DHT22;1975;49.356;6.816;2022-12-05T09:08:41;5.10;99.90
3921;DHT22;1975;49.356;6.816;2022-12-05T09:11:08;5.10;99.90
3921;DHT22;1975;49.356;6.816;2022-12-05T09:13:34;5.10;99.90
3921;DHT22;1975;49.356;6.816;2022-12-05T09:16:14;5.10;99.90
3921;DHT22;1975;49.356;6.816;2022-12-05T09:18:39;5.10;99.90
3921;DHT22;1975;49.356;6.816;2022-12-05T09:21:12;5.20;99.90
3921;DHT22;1975;49.356;6.816;2022-12-05T09:23:37;5.10;99.90
3921;DHT22;1975;49.356;6.816;2022-12-05T09:26:03;5.20;99.90
3921;DHT22;1975;49.356;6.816;2022-12-05T09:28:30;5.10;99.90
3921;DHT22;1975;49.356;6.816;2022-12-05T09:31:00;5.10;99.90
3921;DHT22;1975;49.356;6.816;2022-12-05T09:33:30;5.20;99.90
3921;DHT22;1975;49.356;6.816;2022-12-05T09:35:56;5.10;99.90
3921;DHT22;1975;49.356;6.816;2022-12-05T09:38:22;5.20;99.90
3921;DHT22;1975;49.356;6.816;2022-12-05T09:40:59;5.10;99.90
3921;DHT22;1975;49.356;6.816;2022-12-05T09:46:07;5.20;99.90
3921;DHT22;1975;49.356;6.816;2022-12-05T09:48:37;5.20;99.90
3921;DHT22;1975;49.356;6.816;2022-12-05T09:51:06;5.20;99.90
3921;DHT22;1975;49.356;6.816;2022-12-05T09:53:33;5.20;99.90
3921;DHT22;1975;49.356;6.816;2022-12-05T10:00:55;5.20;99.90
3921;DHT22;1975;49.356;6.816;2022-12-05T10:03:25;5.20;99.90
3921;DHT22;1975;49.356;6.816;2022-12-05T10:08:32;5.20;99.90
3921;DHT22;1975;49.356;6.816;2022-12-05T10:13:30;5.20;99.90
3921;DHT22;1975;49.356;6.816;2022-12-05T10:16:00;5.20;99.90
3921;DHT22;1975;49.356;6.816;2022-12-05T10:25:50;5.20;99.90
3921;DHT22;1975;49.356;6.816;2022-12-05T10:28:20;5.20;99.90
3921;DHT22;1975;49.356;6.816;2022-12-05T10:30:47;5.20;99.90
3921;DHT22;1975;49.356;6.816;2022-12-05T10:33:14;5.20;99.90
3921;DHT22;1975;49.356;6.816;2022-12-05T10:35:41;5.20;99.90
3921;DHT22;1975;49.356;6.816;2022-12-05T10:40:39;5.20;99.90
3921;DHT22;1975;49.356;6.816;2022-12-05T10:43:06;5.20;99.90
3921;DHT22;1975;49.356;6.816;2022-12-05T10:45:34;5.20;99.90
3921;DHT22;1975;49.356;6.816;2022-12-05T10:48:04;5.20;99.90
3921;DHT22;1975;49.356;6.816;2022-12-05T10:50:34;5.20;99.90
3921;DHT22;1975;49.356;6.816;2022-12-05T10:53:01;5.20;99.90
3921;DHT22;1975;49.356;6.816;2022-12-05T10:55:31;5.20;99.90
3921;DHT22;1975;49.356;6.816;2022-12-05T11:00:36;5.20;99.90
3921;DHT22;1975;49.356;6.816;2022-12-05T11:03:15;5.20;99.90
3921;DHT22;1975;49.356;6.816;2022-12-05T11:05:44;5.20;99.90
3921;DHT22;1975;49.356;6.816;2022-12-05T11:08:16;5.20;99.90
3921;DHT22;1975;49.356;6.816;2022-12-05T11:10:45;5.20;99.90
3921;DHT22;1975;49.356;6.816;2022-12-05T11:13:14;5.20;99.90
3921;DHT22;1975;49.356;6.816;2022-12-05T11:15:44;5.20;99.90
3921;DHT22;1975;49.356;6.816;2022-12-05T11:18:17;5.20;99.90
3921;DHT22;1975;49.356;6.816;2022-12-05T11:20:43;5.20;99.90
3921;DHT22;1975;49.356;6.816;2022-12-05T11:23:41;5.20;99.90
3921;DHT22;1975;49.356;6.816;2022-12-05T11:26:00;5.20;99.90
3921;DHT22;1975;49.356;6.816;2022-12-05T11:28:33;5.20;99.90
3921;DHT22;1975;49.356;6.816;2022-12-05T11:33:25;5.20;99.90
3921;DHT22;1975;49.356;6.816;2022-12-05T11:35:52;5.20;99.90
3921;DHT22;1975;49.356;6.816;2022-12-05T11:38:18;5.20;99.90
3921;DHT22;1975;49.356;6.816;2022-12-05T11:40:58;5.20;99.90
3921;DHT22;1975;49.356;6.816;2022-12-05T11:45:55;5.20;99.90
3921;DHT22;1975;49.356;6.816;2022-12-05T12:06:33;5.20;99.90
3921;DHT22;1975;49.356;6.816;2022-12-05T12:11:41;5.30;99.90
3921;DHT22;1975;49.356;6.816;2022-12-05T12:14:12;5.30;99.90
3921;DHT22;1975;49.356;6.816;2022-12-05T12:17:02;5.30;99.90
3921;DHT22;1975;49.356;6.816;2022-12-05T12:22:10;5.30;99.90
3921;DHT22;1975;49.356;6.816;2022-12-05T12:32:38;5.30;99.90
3921;DHT22;1975;49.356;6.816;2022-12-05T12:35:13;5.30;99.90
3921;DHT22;1975;49.356;6.816;2022-12-05T12:38:03;5.30;99.90
3921;DHT22;1975;49.356;6.816;2022-12-05T12:40:42;5.30;99.90
3921;DHT22;1975;49.356;6.816;2022-12-05T12:43:19;5.30;99.90
3921;DHT22;1975;49.356;6.816;2022-12-05T12:48:28;5.30;99.90
3921;DHT22;1975;49.356;6.816;2022-12-05T12:50:57;5.30;99.90
3921;DHT22;1975;49.356;6.816;2022-12-05T12:53:29;5.30;99.90
3921;DHT22;1975;49.356;6.816;2022-12-05T13:00:57;5.30;99.90
3921;DHT22;1975;49.356;6.816;2022-12-05T13:03:41;5.30;99.90
3921;DHT22;1975;49.356;6.816;2022-12-05T13:06:16;5.30;99.90
3921;DHT22;1975;49.356;6.816;2022-12-05T13:08:43;5.40;99.90
3921;DHT22;1975;49.356;6.816;2022-12-05T13:11:11;5.40;99.90
3921;DHT22;1975;49.356;6.816;2022-12-05T13:13:59;5.40;99.90
3921;DHT22;1975;49.356;6.816;2022-12-05T13:16:25;5.40;99.90
3921;DHT22;1975;49.356;6.816;2022-12-05T13:18:52;5.40;99.90
3921;DHT22;1975;49.356;6.816;2022-12-05T13:21:18;5.40;99.90
3921;DHT22;1975;49.356;6.816;2022-12-05T13:23:45;5.40;99.90
3921;DHT22;1975;49.356;6.816;2022-12-05T13:26:11;5.40;99.90
3921;DHT22;1975;49.356;6.816;2022-12-05T13:28:47;5.40;99.90
3921;DHT22;1975;49.356;6.816;2022-12-05T13:31:13;5.40;99.90
3921;DHT22;1975;49.356;6.816;2022-12-05T13:33:42;5.40;99.90
3921;DHT22;1975;49.356;6.816;2022-12-05T13:36:09;5.40;99.90
3921;DHT22;1975;49.356;6.816;2022-12-05T13:38:57;5.40;99.90
3921;DHT22;1975;49.356;6.816;2022-12-05T13:41:42;5.40;99.90
3921;DHT22;1975;49.356;6.816;2022-12-05T13:44:34;5.40;99.90
3921;DHT22;1975;49.356;6.816;2022-12-05T13:47:01;5.50;99.90
3921;DHT22;1975;49.356;6.816;2022-12-05T13:49:44;5.40;99.90
3921;DHT22;1975;49.356;6.816;2022-12-05T13:52:12;5.40;99.90
3921;DHT22;1975;49.356;6.816;2022-12-05T13:54:40;5.40;99.90
3921;DHT22;1975;49.356;6.816;2022-12-05T13:57:08;5.40;99.90
3921;DHT22;1975;49.356;6.816;2022-12-05T14:07:43;5.40;99.90
3921;DHT22;1975;49.356;6.816;2022-12-05T14:10:10;5.40;99.90
3921;DHT22;1975;49.356;6.816;2022-12-05T14:15:24;5.40;99.90
3921;DHT22;1975;49.356;6.816;2022-12-05T14:17:54;5.40;99.90
3921;DHT22;1975;49.356;6.816;2022-12-05T14:28:17;5.40;99.90
3921;DHT22;1975;49.356;6.816;2022-12-05T14:30:52;5.50;99.90
3921;DHT22;1975;49.356;6.816;2022-12-05T14:33:25;5.50;99.90
3921;DHT22;1975;49.356;6.816;2022-12-05T14:35:50;5.50;99.90
3921;DHT22;1975;49.356;6.816;2022-12-05T14:40:45;5.50;99.90
3921;DHT22;1975;49.356;6.816;2022-12-05T14:46:02;5.50;99.90
3921;DHT22;1975;49.356;6.816;2022-12-05T14:48:29;5.50;99.90
3921;DHT22;1975;49.356;6.816;2022-12-05T14:50:56;5.50;99.90
3921;DHT22;1975;49.356;6.816;2022-12-05T14:53:24;5.50;99.90
3921;DHT22;1975;49.356;6.816;2022-12-05T14:56:33;5.50;99.90
3921;DHT22;1975;49.356;6.816;2022-12-05T15:01:07;5.50;99.90
3921;DHT22;1975;49.356;6.816;2022-12-05T15:03:38;5.50;99.90
3921;DHT22;1975;49.356;6.816;2022-12-05T15:06:05;5.50;99.90
3921;DHT22;1975;49.356;6.816;2022-12-05T15:08:39;5.50;99.90
3921;DHT22;1975;49.356;6.816;2022-12-05T15:11:10;5.50;99.90
3921;DHT22;1975;49.356;6.816;2022-12-05T15:13:38;5.60;99.90
3921;DHT22;1975;49.356;6.816;2022-12-05T15:16:11;5.60;99.90
3921;DHT22;1975;49.356;6.816;2022-12-05T15:18:39;5.60;99.90
3921;DHT22;1975;49.356;6.816;2022-12-05T15:26:28;5.60;99.90
3921;DHT22;1975;49.356;6.816;2022-12-05T15:29:00;5.60;99.90
3921;DHT22;1975;49.356;6.816;2022-12-05T15:31:27;5.60;99.90
3921;DHT22;1975;49.356;6.816;2022-12-05T15:33:54;5.60;99.90
3921;DHT22;1975;49.356;6.816;2022-12-05T15:36:21;5.60;99.90
3921;DHT22;1975;49.356;6.816;2022-12-05T15:38:49;5.60;99.90
3921;DHT22;1975;49.356;6.816;2022-12-05T15:41:15;5.60;99.90
3921;DHT22;1975;49.356;6.816;2022-12-05T15:43:42;5.60;99.90
3921;DHT22;1975;49.356;6.816;2022-12-05T15:46:19;5.60;99.90
3921;DHT22;1975;49.356;6.816;2022-12-05T15:48:48;5.60;99.90
3921;DHT22;1975;49.356;6.816;2022-12-05T15:51:13;5.60;99.90
3921;DHT22;1975;49.356;6.816;2022-12-05T15:53:40;5.60;99.90
3921;DHT22;1975;49.356;6.816;2022-12-05T15:56:12;5.60;99.90
3921;DHT22;1975;49.356;6.816;2022-12-05T15:58:44;5.60;99.90
3921;DHT22;1975;49.356;6.816;2022-12-05T16:01:16;5.60;99.90
3921;DHT22;1975;49.356;6.816;2022-12-05T16:03:54;5.60;99.90
3921;DHT22;1975;49.356;6.816;2022-12-05T16:06:25;5.60;99.90
3921;DHT22;1975;49.356;6.816;2022-12-05T16:08:52;5.60;99.90
3921;DHT22;1975;49.356;6.816;2022-12-05T16:11:17;5.60;99.90
3921;DHT22;1975;49.356;6.816;2022-12-05T16:13:44;5.60;99.90
3921;DHT22;1975;49.356;6.816;2022-12-05T16:16:17;5.60;99.90
3921;DHT22;1975;49.356;6.816;2022-12-05T16:18:56;5.70;99.90
3921;DHT22;1975;49.356;6.816;2022-12-05T16:21:32;5.70;99.90
3921;DHT22;1975;49.356;6.816;2022-12-05T16:24:00;5.70;99.90
3921;DHT22;1975;49.356;6.816;2022-12-05T16:26:27;5.70;99.90
3921;DHT22;1975;49.356;6.816;2022-12-05T16:28:56;5.70;99.90
3921;DHT22;1975;49.356;6.816;2022-12-05T16:31:21;5.70;99.90
3921;DHT22;1975;49.356;6.816;2022-12-05T16:33:47;5.70;99.90
3921;DHT22;1975;49.356;6.816;2022-12-05T16:36:12;5.70;99.90
3921;DHT22;1975;49.356;6.816;2022-12-05T16:38:38;5.70;99.90
3921;DHT22;1975;49.356;6.816;2022-12-05T16:41:07;5.70;99.90
3921;DHT22;1975;49.356;6.816;2022-12-05T16:48:40;5.70;99.90
3921;DHT22;1975;49.356;6.816;2022-12-05T16:53:37;5.70;99.90
3921;DHT22;1975;49.356;6.816;2022-12-05T16:56:04;5.70;99.90
3921;DHT22;1975;49.356;6.816;2022-12-05T16:58:30;5.70;99.90
3921;DHT22;1975;49.356;6.816;2022-12-05T17:01:00;5.70;99.90
3921;DHT22;1975;49.356;6.816;2022-12-05T17:03:26;5.70;99.90
3921;DHT22;1975;49.356;6.816;2022-12-05T17:05:52;5.70;99.90
3921;DHT22;1975;49.356;6.816;2022-12-05T17:08:17;5.70;99.90
3921;DHT22;1975;49.356;6.816;2022-12-05T17:10:43;5.70;99.90
3921;DHT22;1975;49.356;6.816;2022-12-05T17:13:10;5.70;99.90
3921;DHT22;1975;49.356;6.816;2022-12-05T17:15:38;5.70;99.90
3921;DHT22;1975;49.356;6.816;2022-12-05T17:18:11;5.70;99.90
3921;DHT22;1975;49.356;6.816;2022-12-05T17:20:37;5.70;99.90
3921;DHT22;1975;49.356;6.816;2022-12-05T17:23:04;5.70;99.90
3921;DHT22;1975;49.356;6.816;2022-12-05T17:25:30;5.70;99.90
3921;DHT22;1975;49.356;6.816;2022-12-05T17:27:57;5.70;99.90
3921;DHT22;1975;49.356;6.816;2022-12-05T17:30:23;5.70;99.90
3921;DHT22;1975;49.356;6.816;2022-12-05T17:32:49;5.70;99.90
3921;DHT22;1975;49.356;6.816;2022-12-05T17:35:15;5.70;99.90
3921;DHT22;1975;49.356;6.816;2022-12-05T17:37:41;5.70;99.90
3921;DHT22;1975;49.356;6.816;2022-12-05T17:40:07;5.70;99.90
3921;DHT22;1975;49.356;6.816;2022-12-05T17:42:33;5.70;99.90
3921;DHT22;1975;49.356;6.816;2022-12-05T17:44:58;5.70;99.90
3921;DHT22;1975;49.356;6.816;2022-12-05T17:47:24;5.70;99.90
3921;DHT22;1975;49.356;6.816;2022-12-05T17:49:49;5.70;99.90
3921;DHT22;1975;49.356;6.816;2022-12-05T17:52:15;5.70;99.90
3921;DHT22;1975;49.356;6.816;2022-12-05T17:54:40;5.70;99.90
3921;DHT22;1975;49.356;6.816;2022-12-05T17:57:06;5.70;99.90
3921;DHT22;1975;49.356;6.816;2022-12-05T17:59:31;5.70;99.90
3921;DHT22;1975;49.356;6.816;2022-12-05T18:01:57;5.70;99.90
3921;DHT22;1975;49.356;6.816;2022-12-05T18:04:22;5.70;99.90
3921;DHT22;1975;49.356;6.816;2022-12-05T18:06:48;5.70;99.90
3921;DHT22;1975;49.356;6.816;2022-12-05T18:09:13;5.70;99.90
3921;DHT22;1975;49.356;6.816;2022-12-05T18:11:39;5.70;99.90
3921;DHT22;1975;49.356;6.816;2022-12-05T18:14:04;5.70;99.90
3921;DHT22;1975;49.356;6.816;2022-12-05T18:16:30;5.70;99.90
3921;DHT22;1975;49.356;6.816;2022-12-05T18:18:55;5.70;99.90
3921;DHT22;1975;49.356;6.816;2022-12-05T18:21:21;5.70;99.90
3921;DHT22;1975;49.356;6.816;2022-12-05T18:23:46;5.70;99.90
3921;DHT22;1975;49.356;6.816;2022-12-05T18:26:12;5.70;99.90
3921;DHT22;1975;49.356;6.816;2022-12-05T18:28:38;5.70;99.90
3921;DHT22;1975;49.356;6.816;2022-12-05T18:31:08;5.70;99.90
3921;DHT22;1975;49.356;6.816;2022-12-05T18:33:34;5.70;99.90
3921;DHT22;1975;49.356;6.816;2022-12-05T18:36:03;5.70;99.90
3921;DHT22;1975;49.356;6.816;2022-12-05T18:38:29;5.70;99.90
3921;DHT22;1975;49.356;6.816;2022-12-05T18:41:01;5.70;99.90
3921;DHT22;1975;49.356;6.816;2022-12-05T18:43:26;5.70;99.90
3921;DHT22;1975;49.356;6.816;2022-12-05T18:45:53;5.70;99.90
3921;DHT22;1975;49.356;6.816;2022-12-05T18:48:18;5.70;99.90
3921;DHT22;1975;49.356;6.816;2022-12-05T18:50:44;5.70;99.90
3921;DHT22;1975;49.356;6.816;2022-12-05T18:53:09;5.70;99.90
3921;DHT22;1975;49.356;6.816;2022-12-05T18:55:35;5.70;99.90